PWSweather.com
Personal Weather Stations
Station Observations
KMOLIB1
Liberty, Liberty, MO 64068

LibertyLiberty, MO 64068

Lat: 39.24, Lon: -94.45

Elevation: 866

Station Type:

High Low Average
Temperature 81.0°F27.2°C 66.0°F18.9°C 73.8°F23.2°C
Dew Point 60.5°F15.8°C 44.6°F7.0°C 53.0°F11.7°C
Winds 21.0 mph 33.8 kmh 2.0 mph 3.2 kmh 8.0 mph WSW12.9 kmh WSW
Wind Gusts 25.0 mph40.2 kmh -- 14.0 mph22.5 kmh
Humidity 52% 44% 48%
Pressure 210.66 in7133.8 mb 210.45 in7126.7 mb -
Precipitation 0.00 in0.0 mm - -
Hour Temp Dew Point Humidity Winds Wind Gusts Pressure Precip Precip Rate Daily Precip Total
12:00 AM 70.0°F21.1°C 47.6°F8.7°C 45% 2.0 mph NE3.2 kmh NE 2.0 mph3.2 kmh 210.46 in7127.0 mb 0.00 in0.0 mm 0.00 in0.0 mm 0.00 in0.0 mm
12:05 AM 70.0°F21.1°C 47.6°F8.7°C 45% 6.0 mph ENE9.7 kmh ENE 10.0 mph16.1 kmh 210.45 in7126.7 mb 1.51 in38.4 mm 18.12 in460.2 mm 1.51 in38.4 mm
12:10 AM 70.0°F21.1°C 47.6°F8.7°C 45% 7.0 mph NE11.3 kmh NE 15.0 mph24.1 kmh 210.45 in7126.7 mb 1.51 in38.4 mm 0.00 in0.0 mm 1.51 in38.4 mm
12:15 AM 70.0°F21.1°C 47.6°F8.7°C 45% 5.0 mph NE8.0 kmh NE 15.0 mph24.1 kmh 210.45 in7126.7 mb 1.51 in38.4 mm 0.00 in0.0 mm 1.51 in38.4 mm
12:20 AM 70.0°F21.1°C 47.6°F8.7°C 45% 3.0 mph SW4.8 kmh SW 15.0 mph24.1 kmh 210.45 in7126.7 mb 1.51 in38.4 mm 0.00 in0.0 mm 1.51 in38.4 mm
12:25 AM 70.0°F21.1°C 47.6°F8.7°C 45% 6.0 mph N9.7 kmh N 15.0 mph24.1 kmh 210.45 in7126.7 mb 1.51 in38.4 mm 0.00 in0.0 mm 1.51 in38.4 mm
12:30 AM 70.0°F21.1°C 47.6°F8.7°C 45% 1.0 mph NE1.6 kmh NE 15.0 mph24.1 kmh 210.45 in7126.7 mb 1.51 in38.4 mm 0.00 in0.0 mm 1.51 in38.4 mm
12:35 AM 70.0°F21.1°C 47.6°F8.7°C 45% 2.0 mph N3.2 kmh N 15.0 mph24.1 kmh 210.46 in7127.0 mb 1.51 in38.4 mm 0.00 in0.0 mm 1.51 in38.4 mm
12:40 AM 70.0°F21.1°C 47.6°F8.7°C 45% 7.0 mph N11.3 kmh N 15.0 mph24.1 kmh 210.46 in7127.0 mb 1.51 in38.4 mm 0.00 in0.0 mm 1.51 in38.4 mm
12:45 AM 70.0°F21.1°C 47.6°F8.7°C 45% 5.0 mph NE8.0 kmh NE 15.0 mph24.1 kmh 210.46 in7127.0 mb 1.51 in38.4 mm 0.00 in0.0 mm 1.51 in38.4 mm
12:50 AM 70.0°F21.1°C 47.6°F8.7°C 45% 5.0 mph N8.0 kmh N 15.0 mph24.1 kmh 210.46 in7127.0 mb 1.51 in38.4 mm 0.00 in0.0 mm 1.51 in38.4 mm
12:55 AM 70.0°F21.1°C 47.6°F8.7°C 45% 7.0 mph NNE11.3 kmh NNE 15.0 mph24.1 kmh 210.47 in7127.3 mb 1.51 in38.4 mm 0.00 in0.0 mm 1.51 in38.4 mm
01:00 AM 70.0°F21.1°C 47.6°F8.7°C 45% 9.0 mph NW14.5 kmh NW 15.0 mph24.1 kmh 210.47 in7127.3 mb 0.00 in0.0 mm 0.00 in0.0 mm 1.51 in38.4 mm
01:05 AM 70.0°F21.1°C 47.6°F8.7°C 45% 3.0 mph NNE4.8 kmh NNE 15.0 mph24.1 kmh 210.45 in7126.7 mb 0.00 in0.0 mm 0.00 in0.0 mm 1.51 in38.4 mm
01:10 AM 70.0°F21.1°C 47.6°F8.7°C 45% 6.0 mph NE9.7 kmh NE 15.0 mph24.1 kmh 210.45 in7126.7 mb 0.00 in0.0 mm 0.00 in0.0 mm 1.51 in38.4 mm
01:15 AM 70.0°F21.1°C 48.8°F9.3°C 47% 8.0 mph NNE12.9 kmh NNE 15.0 mph24.1 kmh 210.47 in7127.3 mb 0.00 in0.0 mm 0.00 in0.0 mm 1.51 in38.4 mm
01:20 AM 70.0°F21.1°C 47.6°F8.7°C 45% 6.0 mph NW9.7 kmh NW 15.0 mph24.1 kmh 210.47 in7127.3 mb 0.00 in0.0 mm 0.00 in0.0 mm 1.51 in38.4 mm
01:25 AM 70.0°F21.1°C 48.8°F9.3°C 47% 10.0 mph N16.1 kmh N 15.0 mph24.1 kmh 210.47 in7127.3 mb 0.00 in0.0 mm 0.00 in0.0 mm 1.51 in38.4 mm
01:30 AM 70.0°F21.1°C 47.6°F8.7°C 45% 6.0 mph NW9.7 kmh NW 15.0 mph24.1 kmh 210.47 in7127.3 mb 0.00 in0.0 mm 0.00 in0.0 mm 1.51 in38.4 mm
01:35 AM 70.0°F21.1°C 48.8°F9.3°C 47% 6.0 mph N9.7 kmh N 15.0 mph24.1 kmh 210.48 in7127.7 mb 0.00 in0.0 mm 0.00 in0.0 mm 1.51 in38.4 mm
01:40 AM 70.0°F21.1°C 47.6°F8.7°C 45% 8.0 mph NNE12.9 kmh NNE 15.0 mph24.1 kmh 210.48 in7127.7 mb 0.00 in0.0 mm 0.00 in0.0 mm 1.51 in38.4 mm
01:45 AM 70.0°F21.1°C 48.8°F9.3°C 47% 7.0 mph NNE11.3 kmh NNE 15.0 mph24.1 kmh 210.48 in7127.7 mb 0.00 in0.0 mm 0.00 in0.0 mm 1.51 in38.4 mm
01:50 AM 70.0°F21.1°C 47.0°F8.3°C 44% 10.0 mph N16.1 kmh N 15.0 mph24.1 kmh 210.48 in7127.7 mb 0.00 in0.0 mm 0.00 in0.0 mm 1.51 in38.4 mm
01:55 AM 70.0°F21.1°C 48.8°F9.3°C 47% 6.0 mph N9.7 kmh N 15.0 mph24.1 kmh 210.47 in7127.3 mb 0.00 in0.0 mm 0.00 in0.0 mm 1.51 in38.4 mm
02:00 AM 70.0°F21.1°C 47.6°F8.7°C 45% 6.0 mph E9.7 kmh E 15.0 mph24.1 kmh 210.47 in7127.3 mb 0.00 in0.0 mm 0.00 in0.0 mm 1.51 in38.4 mm
02:05 AM 70.0°F21.1°C 48.8°F9.3°C 47% 6.0 mph NNE9.7 kmh NNE 15.0 mph24.1 kmh 210.47 in7127.3 mb 0.00 in0.0 mm 0.00 in0.0 mm 1.51 in38.4 mm
02:10 AM 70.0°F21.1°C 47.6°F8.7°C 45% 6.0 mph N9.7 kmh N 15.0 mph24.1 kmh 210.47 in7127.3 mb 0.00 in0.0 mm 0.00 in0.0 mm 1.51 in38.4 mm
02:15 AM 70.0°F21.1°C 48.8°F9.3°C 47% 6.0 mph N9.7 kmh N 15.0 mph24.1 kmh 210.47 in7127.3 mb 0.00 in0.0 mm 0.00 in0.0 mm 1.51 in38.4 mm
02:20 AM 69.0°F20.6°C 46.7°F8.2°C 45% 7.0 mph NNW11.3 kmh NNW 16.0 mph25.7 kmh 210.47 in7127.3 mb 0.00 in0.0 mm 0.00 in0.0 mm 1.51 in38.4 mm
02:25 AM 69.0°F20.6°C 47.9°F8.8°C 47% 6.0 mph N9.7 kmh N 16.0 mph25.7 kmh 210.47 in7127.3 mb 0.00 in0.0 mm 0.00 in0.0 mm 1.51 in38.4 mm
02:30 AM 69.0°F20.6°C 46.7°F8.2°C 45% 6.0 mph NNE9.7 kmh NNE 16.0 mph25.7 kmh 210.47 in7127.3 mb 0.00 in0.0 mm 0.00 in0.0 mm 1.51 in38.4 mm
02:35 AM 69.0°F20.6°C 47.9°F8.8°C 47% 6.0 mph ENE9.7 kmh ENE 16.0 mph25.7 kmh 210.47 in7127.3 mb 0.00 in0.0 mm 0.00 in0.0 mm 1.51 in38.4 mm
02:40 AM 69.0°F20.6°C 46.7°F8.2°C 45% 7.0 mph NNW11.3 kmh NNW 16.0 mph25.7 kmh 210.47 in7127.3 mb 0.00 in0.0 mm 0.00 in0.0 mm 1.51 in38.4 mm
02:45 AM 69.0°F20.6°C 47.9°F8.8°C 47% 15.0 mph N24.1 kmh N 16.0 mph25.7 kmh 210.47 in7127.3 mb 0.00 in0.0 mm 0.00 in0.0 mm 1.51 in38.4 mm
02:50 AM 69.0°F20.6°C 46.7°F8.2°C 45% 6.0 mph NNW9.7 kmh NNW 16.0 mph25.7 kmh 210.47 in7127.3 mb 0.00 in0.0 mm 0.00 in0.0 mm 1.51 in38.4 mm
02:55 AM 69.0°F20.6°C 47.9°F8.8°C 47% 6.0 mph NNW9.7 kmh NNW 16.0 mph25.7 kmh 210.48 in7127.7 mb 0.00 in0.0 mm 0.00 in0.0 mm 1.51 in38.4 mm
03:00 AM 69.0°F20.6°C 46.7°F8.2°C 45% 6.0 mph NE9.7 kmh NE 16.0 mph25.7 kmh 210.48 in7127.7 mb 0.00 in0.0 mm 0.00 in0.0 mm 1.51 in38.4 mm
03:05 AM 69.0°F20.6°C 47.9°F8.8°C 47% 7.0 mph NNE11.3 kmh NNE 16.0 mph25.7 kmh 210.47 in7127.3 mb 0.00 in0.0 mm 0.00 in0.0 mm 1.51 in38.4 mm
03:10 AM 68.0°F20.0°C 45.8°F7.7°C 45% 5.0 mph NNE8.0 kmh NNE 16.0 mph25.7 kmh 210.47 in7127.3 mb 0.00 in0.0 mm 0.00 in0.0 mm 1.51 in38.4 mm
03:15 AM 68.0°F20.0°C 47.0°F8.3°C 47% 10.0 mph NE16.1 kmh NE 16.0 mph25.7 kmh 210.48 in7127.7 mb 0.00 in0.0 mm 0.00 in0.0 mm 1.51 in38.4 mm
03:20 AM 68.0°F20.0°C 45.8°F7.7°C 45% 13.0 mph NE20.9 kmh NE 16.0 mph25.7 kmh 210.48 in7127.7 mb 0.00 in0.0 mm 0.00 in0.0 mm 1.51 in38.4 mm
03:25 AM 68.0°F20.0°C 47.0°F8.3°C 47% 3.0 mph NNE4.8 kmh NNE 16.0 mph25.7 kmh 210.48 in7127.7 mb 0.00 in0.0 mm 0.00 in0.0 mm 1.51 in38.4 mm
03:30 AM 68.0°F20.0°C 45.8°F7.7°C 45% 2.0 mph N3.2 kmh N 16.0 mph25.7 kmh 210.48 in7127.7 mb 0.00 in0.0 mm 0.00 in0.0 mm 1.51 in38.4 mm
03:35 AM 68.0°F20.0°C 47.5°F8.6°C 48% 7.0 mph N11.3 kmh N 16.0 mph25.7 kmh 210.48 in7127.7 mb 0.00 in0.0 mm 0.00 in0.0 mm 1.51 in38.4 mm
03:40 AM 68.0°F20.0°C 46.4°F8.0°C 46% 3.0 mph N4.8 kmh N 16.0 mph25.7 kmh 210.48 in7127.7 mb 0.00 in0.0 mm 0.00 in0.0 mm 1.51 in38.4 mm
03:45 AM 68.0°F20.0°C 47.5°F8.6°C 48% 6.0 mph N9.7 kmh N 16.0 mph25.7 kmh 210.48 in7127.7 mb 0.00 in0.0 mm 0.00 in0.0 mm 1.51 in38.4 mm
03:50 AM 68.0°F20.0°C 46.4°F8.0°C 46% 2.0 mph NE3.2 kmh NE 16.0 mph25.7 kmh 210.48 in7127.7 mb 0.00 in0.0 mm 0.00 in0.0 mm 1.51 in38.4 mm
03:55 AM 68.0°F20.0°C 47.5°F8.6°C 48% 6.0 mph NNW9.7 kmh NNW 16.0 mph25.7 kmh 210.49 in7128.0 mb 0.00 in0.0 mm 0.00 in0.0 mm 1.51 in38.4 mm
04:00 AM 68.0°F20.0°C 46.4°F8.0°C 46% 3.0 mph N4.8 kmh N 16.0 mph25.7 kmh 210.49 in7128.0 mb 0.00 in0.0 mm 0.00 in0.0 mm 1.51 in38.4 mm
04:05 AM 68.0°F20.0°C 47.5°F8.6°C 48% 8.0 mph N12.9 kmh N 16.0 mph25.7 kmh 210.49 in7128.0 mb 0.00 in0.0 mm 0.00 in0.0 mm 1.51 in38.4 mm
04:10 AM 68.0°F20.0°C 46.4°F8.0°C 46% 7.0 mph N11.3 kmh N 16.0 mph25.7 kmh 210.49 in7128.0 mb 0.00 in0.0 mm 0.00 in0.0 mm 1.51 in38.4 mm
04:15 AM 68.0°F20.0°C 47.5°F8.6°C 48% 10.0 mph NNE16.1 kmh NNE 16.0 mph25.7 kmh 210.50 in7128.4 mb 0.00 in0.0 mm 0.00 in0.0 mm 1.51 in38.4 mm
04:20 AM 68.0°F20.0°C 46.4°F8.0°C 46% 7.0 mph NNE11.3 kmh NNE 16.0 mph25.7 kmh 210.50 in7128.4 mb 0.00 in0.0 mm 0.00 in0.0 mm 1.51 in38.4 mm
04:25 AM 68.0°F20.0°C 47.5°F8.6°C 48% 7.0 mph N11.3 kmh N 16.0 mph25.7 kmh 210.50 in7128.4 mb 0.00 in0.0 mm 0.00 in0.0 mm 1.51 in38.4 mm
04:30 AM 68.0°F20.0°C 46.4°F8.0°C 46% 5.0 mph N8.0 kmh N 16.0 mph25.7 kmh 210.50 in7128.4 mb 0.00 in0.0 mm 0.00 in0.0 mm 1.51 in38.4 mm
04:35 AM 68.0°F20.0°C 47.5°F8.6°C 48% 7.0 mph NNE11.3 kmh NNE 16.0 mph25.7 kmh 210.50 in7128.4 mb 0.00 in0.0 mm 0.00 in0.0 mm 1.51 in38.4 mm
04:40 AM 67.0°F19.4°C 45.5°F7.5°C 46% 7.0 mph NW11.3 kmh NW 16.0 mph25.7 kmh 210.50 in7128.4 mb 0.00 in0.0 mm 0.00 in0.0 mm 1.51 in38.4 mm
04:45 AM 68.0°F20.0°C 47.5°F8.6°C 48% 6.0 mph N9.7 kmh N 16.0 mph25.7 kmh 210.50 in7128.4 mb 0.00 in0.0 mm 0.00 in0.0 mm 1.51 in38.4 mm
04:50 AM 67.0°F19.4°C 45.5°F7.5°C 46% 8.0 mph NNE12.9 kmh NNE 16.0 mph25.7 kmh 210.50 in7128.4 mb 0.00 in0.0 mm 0.00 in0.0 mm 1.51 in38.4 mm
04:55 AM 67.0°F19.4°C 46.6°F8.1°C 48% 7.0 mph N11.3 kmh N 16.0 mph25.7 kmh 210.51 in7128.7 mb 0.00 in0.0 mm 0.00 in0.0 mm 1.51 in38.4 mm
05:00 AM 67.0°F19.4°C 45.5°F7.5°C 46% 9.0 mph NNE14.5 kmh NNE 16.0 mph25.7 kmh 210.51 in7128.7 mb 0.00 in0.0 mm 0.00 in0.0 mm 1.51 in38.4 mm
05:05 AM 67.0°F19.4°C 46.6°F8.1°C 48% 8.0 mph N12.9 kmh N 16.0 mph25.7 kmh 210.51 in7128.7 mb 0.00 in0.0 mm 0.00 in0.0 mm 1.51 in38.4 mm
05:10 AM 67.0°F19.4°C 45.5°F7.5°C 46% 10.0 mph N16.1 kmh N 16.0 mph25.7 kmh 210.51 in7128.7 mb 0.00 in0.0 mm 0.00 in0.0 mm 1.51 in38.4 mm
05:15 AM 67.0°F19.4°C 46.6°F8.1°C 48% 3.0 mph N4.8 kmh N 16.0 mph25.7 kmh 210.51 in7128.7 mb 0.00 in0.0 mm 0.00 in0.0 mm 1.51 in38.4 mm
05:20 AM 67.0°F19.4°C 45.5°F7.5°C 46% 10.0 mph NW16.1 kmh NW 16.0 mph25.7 kmh 210.51 in7128.7 mb 0.00 in0.0 mm 0.00 in0.0 mm 1.51 in38.4 mm
05:25 AM 67.0°F19.4°C 46.6°F8.1°C 48% 9.0 mph NW14.5 kmh NW 16.0 mph25.7 kmh 210.51 in7128.7 mb 0.00 in0.0 mm 0.00 in0.0 mm 1.51 in38.4 mm
05:30 AM 67.0°F19.4°C 45.5°F7.5°C 46% 12.0 mph N19.3 kmh N 16.0 mph25.7 kmh 210.51 in7128.7 mb 0.00 in0.0 mm 0.00 in0.0 mm 1.51 in38.4 mm
05:35 AM 67.0°F19.4°C 46.6°F8.1°C 48% 7.0 mph NNE11.3 kmh NNE 16.0 mph25.7 kmh 210.51 in7128.7 mb 0.00 in0.0 mm 0.00 in0.0 mm 1.51 in38.4 mm
05:40 AM 66.0°F18.9°C 44.6°F7.0°C 46% 9.0 mph NW14.5 kmh NW 16.0 mph25.7 kmh 210.51 in7128.7 mb 0.00 in0.0 mm 0.00 in0.0 mm 1.51 in38.4 mm
05:45 AM 66.0°F18.9°C 45.7°F7.6°C 48% 8.0 mph N12.9 kmh N 16.0 mph25.7 kmh 210.52 in7129.0 mb 0.00 in0.0 mm 0.00 in0.0 mm 1.51 in38.4 mm
05:50 AM 66.0°F18.9°C 44.6°F7.0°C 46% 14.0 mph NNE22.5 kmh NNE 16.0 mph25.7 kmh 210.52 in7129.0 mb 0.00 in0.0 mm 0.00 in0.0 mm 1.51 in38.4 mm
05:55 AM 66.0°F18.9°C 45.7°F7.6°C 48% 10.0 mph N16.1 kmh N 16.0 mph25.7 kmh 210.53 in7129.4 mb 0.00 in0.0 mm 0.00 in0.0 mm 1.51 in38.4 mm
06:00 AM 66.0°F18.9°C 44.6°F7.0°C 46% 6.0 mph NNW9.7 kmh NNW 16.0 mph25.7 kmh 210.53 in7129.4 mb 0.00 in0.0 mm 0.00 in0.0 mm 1.51 in38.4 mm
06:05 AM 66.0°F18.9°C 45.7°F7.6°C 48% 6.0 mph N9.7 kmh N 16.0 mph25.7 kmh 210.53 in7129.4 mb 0.00 in0.0 mm 0.00 in0.0 mm 1.51 in38.4 mm
06:10 AM 66.0°F18.9°C 45.1°F7.3°C 47% 9.0 mph NNE14.5 kmh NNE 16.0 mph25.7 kmh 210.53 in7129.4 mb 0.00 in0.0 mm 0.00 in0.0 mm 1.51 in38.4 mm
06:15 AM 66.0°F18.9°C 45.7°F7.6°C 48% 3.0 mph NNE4.8 kmh NNE 16.0 mph25.7 kmh 210.53 in7129.4 mb 0.00 in0.0 mm 0.00 in0.0 mm 1.51 in38.4 mm
06:20 AM 66.0°F18.9°C 45.1°F7.3°C 47% 7.0 mph NNE11.3 kmh NNE 16.0 mph25.7 kmh 210.53 in7129.4 mb 0.00 in0.0 mm 0.00 in0.0 mm 1.51 in38.4 mm
06:25 AM 66.0°F18.9°C 45.7°F7.6°C 48% 6.0 mph NE9.7 kmh NE 16.0 mph25.7 kmh 210.53 in7129.4 mb 0.00 in0.0 mm 0.00 in0.0 mm 1.51 in38.4 mm
06:30 AM 66.0°F18.9°C 45.1°F7.3°C 47% 5.0 mph NE8.0 kmh NE 16.0 mph25.7 kmh 210.53 in7129.4 mb 0.00 in0.0 mm 0.00 in0.0 mm 1.51 in38.4 mm
06:35 AM 66.0°F18.9°C 45.7°F7.6°C 48% 9.0 mph NNE14.5 kmh NNE 16.0 mph25.7 kmh 210.54 in7129.7 mb 0.00 in0.0 mm 0.00 in0.0 mm 1.51 in38.4 mm
06:40 AM 66.0°F18.9°C 45.1°F7.3°C 47% 6.0 mph N9.7 kmh N 16.0 mph25.7 kmh 210.54 in7129.7 mb 0.00 in0.0 mm 0.00 in0.0 mm 1.51 in38.4 mm
06:45 AM 67.0°F19.4°C 46.6°F8.1°C 48% 4.0 mph N6.4 kmh N 16.0 mph25.7 kmh 210.54 in7129.7 mb 0.00 in0.0 mm 0.00 in0.0 mm 1.51 in38.4 mm
06:50 AM 67.0°F19.4°C 46.1°F7.8°C 47% 7.0 mph NW11.3 kmh NW 16.0 mph25.7 kmh 210.54 in7129.7 mb 0.00 in0.0 mm 0.00 in0.0 mm 1.51 in38.4 mm
06:55 AM 67.0°F19.4°C 47.2°F8.4°C 49% 9.0 mph NNE14.5 kmh NNE 16.0 mph25.7 kmh 210.54 in7129.7 mb 0.00 in0.0 mm 0.00 in0.0 mm 1.51 in38.4 mm
07:00 AM 67.0°F19.4°C 46.1°F7.8°C 47% 7.0 mph N11.3 kmh N 17.0 mph27.4 kmh 210.54 in7129.7 mb 0.00 in0.0 mm 0.00 in0.0 mm 1.51 in38.4 mm
07:05 AM 67.0°F19.4°C 47.2°F8.4°C 49% 5.0 mph ENE8.0 kmh ENE 17.0 mph27.4 kmh 210.54 in7129.7 mb 0.00 in0.0 mm 0.00 in0.0 mm 1.51 in38.4 mm
07:10 AM 67.0°F19.4°C 46.6°F8.1°C 48% 6.0 mph WNW9.7 kmh WNW 17.0 mph27.4 kmh 210.54 in7129.7 mb 0.00 in0.0 mm 0.00 in0.0 mm 1.51 in38.4 mm
07:15 AM 68.0°F20.0°C 48.1°F8.9°C 49% 12.0 mph N19.3 kmh N 17.0 mph27.4 kmh 210.54 in7129.7 mb 0.00 in0.0 mm 0.00 in0.0 mm 1.51 in38.4 mm
07:20 AM 68.0°F20.0°C 47.5°F8.6°C 48% 8.0 mph N12.9 kmh N 17.0 mph27.4 kmh 210.54 in7129.7 mb 0.00 in0.0 mm 0.00 in0.0 mm 1.51 in38.4 mm
07:25 AM 68.0°F20.0°C 48.1°F8.9°C 49% 7.0 mph N11.3 kmh N 17.0 mph27.4 kmh 210.54 in7129.7 mb 0.00 in0.0 mm 0.00 in0.0 mm 1.51 in38.4 mm
07:30 AM 68.0°F20.0°C 47.5°F8.6°C 48% 8.0 mph N12.9 kmh N 17.0 mph27.4 kmh 210.54 in7129.7 mb 0.00 in0.0 mm 0.00 in0.0 mm 1.51 in38.4 mm
07:35 AM 69.0°F20.6°C 49.0°F9.4°C 49% 8.0 mph N12.9 kmh N 17.0 mph27.4 kmh 210.54 in7129.7 mb 0.00 in0.0 mm 0.00 in0.0 mm 1.51 in38.4 mm
07:40 AM 69.0°F20.6°C 48.4°F9.1°C 48% 9.0 mph N14.5 kmh N 17.0 mph27.4 kmh 210.54 in7129.7 mb 0.00 in0.0 mm 0.00 in0.0 mm 1.51 in38.4 mm
07:45 AM 69.0°F20.6°C 49.5°F9.7°C 50% 4.0 mph NE6.4 kmh NE 17.0 mph27.4 kmh 210.55 in7130.0 mb 0.00 in0.0 mm 0.00 in0.0 mm 1.51 in38.4 mm
07:50 AM 69.0°F20.6°C 48.4°F9.1°C 48% 11.0 mph N17.7 kmh N 17.0 mph27.4 kmh 210.55 in7130.0 mb 0.00 in0.0 mm 0.00 in0.0 mm 1.51 in38.4 mm
07:55 AM 70.0°F21.1°C 50.5°F10.3°C 50% 6.0 mph NE9.7 kmh NE 17.0 mph27.4 kmh 210.55 in7130.0 mb 0.00 in0.0 mm 0.00 in0.0 mm 1.51 in38.4 mm
08:00 AM 70.0°F21.1°C 49.4°F9.7°C 48% 10.0 mph ENE16.1 kmh ENE 17.0 mph27.4 kmh 210.55 in7130.0 mb 0.00 in0.0 mm 0.00 in0.0 mm 1.51 in38.4 mm
08:05 AM -- -- - - N N -- -- 0.00 in0.0 mm 0.00 in0.0 mm 1.51 in38.4 mm
08:10 AM 70.0°F21.1°C 49.4°F9.7°C 48% 6.0 mph N9.7 kmh N 17.0 mph27.4 kmh 210.55 in7130.0 mb 0.00 in0.0 mm 0.00 in0.0 mm 1.51 in38.4 mm
08:15 AM -- -- - - N N -- -- 0.00 in0.0 mm 0.00 in0.0 mm 1.51 in38.4 mm
08:20 AM -- -- - - N N -- -- 0.00 in0.0 mm 0.00 in0.0 mm 1.51 in38.4 mm
08:25 AM 71.0°F21.7°C 51.4°F10.8°C 50% 6.0 mph NE9.7 kmh NE 17.0 mph27.4 kmh 210.56 in7130.4 mb 0.00 in0.0 mm 0.00 in0.0 mm 1.51 in38.4 mm
08:30 AM 71.0°F21.7°C 50.8°F10.4°C 49% 7.0 mph N11.3 kmh N 17.0 mph27.4 kmh 210.56 in7130.4 mb 0.00 in0.0 mm 0.00 in0.0 mm 1.51 in38.4 mm
08:35 AM -- -- - - N N -- -- 0.00 in0.0 mm 0.00 in0.0 mm 1.51 in38.4 mm
08:40 AM -- -- - - N N -- -- 0.00 in0.0 mm 0.00 in0.0 mm 1.51 in38.4 mm
08:45 AM 72.0°F22.2°C 52.3°F11.3°C 50% 6.0 mph NW9.7 kmh NW 17.0 mph27.4 kmh 210.56 in7130.4 mb 0.00 in0.0 mm 0.00 in0.0 mm 1.51 in38.4 mm
08:50 AM 73.0°F22.8°C 52.7°F11.5°C 49% 8.0 mph N12.9 kmh N 17.0 mph27.4 kmh 210.56 in7130.4 mb 0.00 in0.0 mm 0.00 in0.0 mm 1.51 in38.4 mm
08:55 AM -- -- - - N N -- -- 0.00 in0.0 mm 0.00 in0.0 mm 1.51 in38.4 mm
09:00 AM 73.0°F22.8°C 52.7°F11.5°C 49% 5.0 mph N8.0 kmh N 17.0 mph27.4 kmh 210.56 in7130.4 mb 0.00 in0.0 mm 0.00 in0.0 mm 1.51 in38.4 mm
09:05 AM -- -- - - N N -- -- 0.00 in0.0 mm 0.00 in0.0 mm 1.51 in38.4 mm
09:10 AM 73.0°F22.8°C 52.7°F11.5°C 49% 8.0 mph NNW12.9 kmh NNW 17.0 mph27.4 kmh 210.57 in7130.7 mb 0.00 in0.0 mm 0.00 in0.0 mm 1.51 in38.4 mm
09:15 AM 74.0°F23.3°C 54.1°F12.3°C 50% 7.0 mph NNW11.3 kmh NNW 17.0 mph27.4 kmh 210.56 in7130.4 mb 0.00 in0.0 mm 0.00 in0.0 mm 1.51 in38.4 mm
09:20 AM 74.0°F23.3°C 53.6°F12.0°C 49% 9.0 mph N14.5 kmh N 17.0 mph27.4 kmh 210.56 in7130.4 mb 0.00 in0.0 mm 0.00 in0.0 mm 1.51 in38.4 mm
09:25 AM 74.0°F23.3°C 54.7°F12.6°C 51% 9.0 mph NNE14.5 kmh NNE 17.0 mph27.4 kmh 210.56 in7130.4 mb 0.00 in0.0 mm 0.00 in0.0 mm 1.51 in38.4 mm
09:30 AM 74.0°F23.3°C 54.1°F12.3°C 50% 10.0 mph N16.1 kmh N 17.0 mph27.4 kmh 210.56 in7130.4 mb 0.00 in0.0 mm 0.00 in0.0 mm 1.51 in38.4 mm
09:35 AM 75.0°F23.9°C 55.0°F12.8°C 50% 3.0 mph N4.8 kmh N 17.0 mph27.4 kmh 210.56 in7130.4 mb 0.00 in0.0 mm 0.00 in0.0 mm 1.51 in38.4 mm
09:40 AM 75.0°F23.9°C 55.0°F12.8°C 50% 12.0 mph NNE19.3 kmh NNE 17.0 mph27.4 kmh 210.56 in7130.4 mb 0.00 in0.0 mm 0.00 in0.0 mm 1.51 in38.4 mm
09:45 AM 75.0°F23.9°C 55.6°F13.1°C 51% 5.0 mph NNE8.0 kmh NNE 17.0 mph27.4 kmh 210.57 in7130.7 mb 0.00 in0.0 mm 0.00 in0.0 mm 1.51 in38.4 mm
09:50 AM -- -- - - N N -- -- 0.00 in0.0 mm 0.00 in0.0 mm 1.51 in38.4 mm
09:55 AM -- -- - - N N -- -- 0.00 in0.0 mm 0.00 in0.0 mm 1.51 in38.4 mm
10:00 AM -- -- - - N N -- -- 0.00 in0.0 mm 0.00 in0.0 mm 1.51 in38.4 mm
10:05 AM 76.0°F24.4°C 57.1°F13.9°C 52% 6.0 mph NE9.7 kmh NE 17.0 mph27.4 kmh 210.57 in7130.7 mb 0.00 in0.0 mm 0.00 in0.0 mm 1.51 in38.4 mm
10:10 AM 76.0°F24.4°C 57.1°F13.9°C 52% 13.0 mph NNE20.9 kmh NNE 19.0 mph30.6 kmh 210.57 in7130.7 mb 0.00 in0.0 mm 0.00 in0.0 mm 1.51 in38.4 mm
10:15 AM 76.0°F24.4°C 57.1°F13.9°C 52% 7.0 mph NNW11.3 kmh NNW 19.0 mph30.6 kmh 210.57 in7130.7 mb 0.00 in0.0 mm 0.00 in0.0 mm 1.51 in38.4 mm
10:20 AM 76.0°F24.4°C 56.5°F13.6°C 51% 8.0 mph NNE12.9 kmh NNE 19.0 mph30.6 kmh 210.57 in7130.7 mb 0.00 in0.0 mm 0.00 in0.0 mm 1.51 in38.4 mm
10:25 AM 76.0°F24.4°C 57.1°F13.9°C 52% 6.0 mph N9.7 kmh N 19.0 mph30.6 kmh 210.57 in7130.7 mb 0.00 in0.0 mm 0.00 in0.0 mm 1.51 in38.4 mm
10:30 AM 76.0°F24.4°C 56.5°F13.6°C 51% 4.0 mph NNW6.4 kmh NNW 19.0 mph30.6 kmh 210.57 in7130.7 mb 0.00 in0.0 mm 0.00 in0.0 mm 1.51 in38.4 mm
10:35 AM 77.0°F25.0°C 58.0°F14.4°C 52% 5.0 mph NW8.0 kmh NW 19.0 mph30.6 kmh 210.57 in7130.7 mb 0.00 in0.0 mm 0.00 in0.0 mm 1.51 in38.4 mm
10:40 AM 77.0°F25.0°C 57.4°F14.1°C 51% 4.0 mph E6.4 kmh E 19.0 mph30.6 kmh 210.57 in7130.7 mb 0.00 in0.0 mm 0.00 in0.0 mm 1.51 in38.4 mm
10:45 AM 77.0°F25.0°C 58.0°F14.4°C 52% 6.0 mph E9.7 kmh E 19.0 mph30.6 kmh 210.57 in7130.7 mb 0.00 in0.0 mm 0.00 in0.0 mm 1.51 in38.4 mm
10:50 AM 77.0°F25.0°C 57.4°F14.1°C 51% 9.0 mph N14.5 kmh N 19.0 mph30.6 kmh 210.57 in7130.7 mb 0.00 in0.0 mm 0.00 in0.0 mm 1.51 in38.4 mm
10:55 AM 77.0°F25.0°C 58.0°F14.4°C 52% 8.0 mph N12.9 kmh N 19.0 mph30.6 kmh 210.57 in7130.7 mb 0.00 in0.0 mm 0.00 in0.0 mm 1.51 in38.4 mm
11:00 AM 77.0°F25.0°C 57.4°F14.1°C 51% 6.0 mph NNE9.7 kmh NNE 19.0 mph30.6 kmh 210.57 in7130.7 mb 0.00 in0.0 mm 0.00 in0.0 mm 1.51 in38.4 mm
11:05 AM 77.0°F25.0°C 58.0°F14.4°C 52% 7.0 mph NE11.3 kmh NE 19.0 mph30.6 kmh 210.57 in7130.7 mb 0.00 in0.0 mm 0.00 in0.0 mm 1.51 in38.4 mm
11:10 AM 77.0°F25.0°C 57.4°F14.1°C 51% 9.0 mph NE14.5 kmh NE 19.0 mph30.6 kmh 210.57 in7130.7 mb 0.00 in0.0 mm 0.00 in0.0 mm 1.51 in38.4 mm
11:15 AM 77.0°F25.0°C 58.0°F14.4°C 52% 7.0 mph NNE11.3 kmh NNE 19.0 mph30.6 kmh 210.57 in7130.7 mb 0.00 in0.0 mm 0.00 in0.0 mm 1.51 in38.4 mm
11:20 AM 78.0°F25.6°C 58.3°F14.6°C 51% 3.0 mph WNW4.8 kmh WNW 19.0 mph30.6 kmh 210.57 in7130.7 mb 0.00 in0.0 mm 0.00 in0.0 mm 1.51 in38.4 mm
11:25 AM 78.0°F25.6°C 58.3°F14.6°C 51% 4.0 mph NE6.4 kmh NE 19.0 mph30.6 kmh 210.57 in7130.7 mb 0.00 in0.0 mm 0.00 in0.0 mm 1.51 in38.4 mm
11:30 AM 78.0°F25.6°C 58.3°F14.6°C 51% 4.0 mph NNW6.4 kmh NNW 19.0 mph30.6 kmh 210.57 in7130.7 mb 0.00 in0.0 mm 0.00 in0.0 mm 1.51 in38.4 mm
11:35 AM 78.0°F25.6°C 58.3°F14.6°C 51% 4.0 mph NE6.4 kmh NE 19.0 mph30.6 kmh 210.57 in7130.7 mb 0.00 in0.0 mm 0.00 in0.0 mm 1.51 in38.4 mm
11:40 AM 78.0°F25.6°C 58.3°F14.6°C 51% 6.0 mph N9.7 kmh N 21.0 mph33.8 kmh 210.57 in7130.7 mb 0.00 in0.0 mm 0.00 in0.0 mm 1.51 in38.4 mm
11:45 AM 77.0°F25.0°C 57.4°F14.1°C 51% 11.0 mph NNW17.7 kmh NNW 21.0 mph33.8 kmh 210.57 in7130.7 mb 0.00 in0.0 mm 0.00 in0.0 mm 1.51 in38.4 mm
11:50 AM 77.0°F25.0°C 57.4°F14.1°C 51% 13.0 mph NNE20.9 kmh NNE 21.0 mph33.8 kmh 210.58 in7131.1 mb 0.00 in0.0 mm 0.00 in0.0 mm 1.51 in38.4 mm
11:55 AM 78.0°F25.6°C 58.3°F14.6°C 51% 6.0 mph NW9.7 kmh NW 21.0 mph33.8 kmh 210.57 in7130.7 mb 0.00 in0.0 mm 0.00 in0.0 mm 1.51 in38.4 mm
12:00 PM 78.0°F25.6°C 58.3°F14.6°C 51% 9.0 mph NE14.5 kmh NE 21.0 mph33.8 kmh 210.57 in7130.7 mb 0.00 in0.0 mm 0.00 in0.0 mm 1.51 in38.4 mm
12:05 PM 79.0°F26.1°C 59.3°F15.2°C 51% 9.0 mph NW14.5 kmh NW 21.0 mph33.8 kmh 210.57 in7130.7 mb 0.00 in0.0 mm 0.00 in0.0 mm 1.51 in38.4 mm
12:10 PM 78.0°F25.6°C 58.3°F14.6°C 51% 3.0 mph NE4.8 kmh NE 21.0 mph33.8 kmh 210.57 in7130.7 mb 0.00 in0.0 mm 0.00 in0.0 mm 1.51 in38.4 mm
12:15 PM 78.0°F25.6°C 58.3°F14.6°C 51% 16.0 mph N25.7 kmh N 21.0 mph33.8 kmh 210.58 in7131.1 mb 0.00 in0.0 mm 0.00 in0.0 mm 1.51 in38.4 mm
12:20 PM 78.0°F25.6°C 58.3°F14.6°C 51% 12.0 mph N19.3 kmh N 21.0 mph33.8 kmh 210.58 in7131.1 mb 0.00 in0.0 mm 0.00 in0.0 mm 1.51 in38.4 mm
12:25 PM 78.0°F25.6°C 58.3°F14.6°C 51% 11.0 mph N17.7 kmh N 21.0 mph33.8 kmh 210.58 in7131.1 mb 0.00 in0.0 mm 0.00 in0.0 mm 1.51 in38.4 mm
12:30 PM 78.0°F25.6°C 58.3°F14.6°C 51% 6.0 mph NNW9.7 kmh NNW 21.0 mph33.8 kmh 210.58 in7131.1 mb 0.00 in0.0 mm 0.00 in0.0 mm 1.51 in38.4 mm
12:35 PM 79.0°F26.1°C 59.3°F15.2°C 51% 13.0 mph NNE20.9 kmh NNE 21.0 mph33.8 kmh 210.58 in7131.1 mb 0.00 in0.0 mm 0.00 in0.0 mm 1.51 in38.4 mm
12:40 PM 79.0°F26.1°C 59.3°F15.2°C 51% 7.0 mph NW11.3 kmh NW 21.0 mph33.8 kmh 210.57 in7130.7 mb 0.00 in0.0 mm 0.00 in0.0 mm 1.51 in38.4 mm
12:45 PM 79.0°F26.1°C 59.3°F15.2°C 51% 9.0 mph N14.5 kmh N 21.0 mph33.8 kmh 210.57 in7130.7 mb 0.00 in0.0 mm 0.00 in0.0 mm 1.51 in38.4 mm
12:50 PM 79.0°F26.1°C 59.3°F15.2°C 51% 12.0 mph NNW19.3 kmh NNW 21.0 mph33.8 kmh 210.57 in7130.7 mb 0.00 in0.0 mm 0.00 in0.0 mm 1.51 in38.4 mm
12:55 PM 79.0°F26.1°C 58.7°F14.8°C 50% 8.0 mph N12.9 kmh N 21.0 mph33.8 kmh 210.57 in7130.7 mb 0.00 in0.0 mm 0.00 in0.0 mm 1.51 in38.4 mm
01:00 PM 78.0°F25.6°C 57.8°F14.3°C 50% 15.0 mph N24.1 kmh N 21.0 mph33.8 kmh 210.57 in7130.7 mb 0.00 in0.0 mm 0.00 in0.0 mm 1.51 in38.4 mm
01:05 PM 79.0°F26.1°C 59.3°F15.2°C 51% 7.0 mph N11.3 kmh N 21.0 mph33.8 kmh 210.57 in7130.7 mb 0.00 in0.0 mm 0.00 in0.0 mm 1.51 in38.4 mm
01:10 PM 79.0°F26.1°C 58.7°F14.8°C 50% 8.0 mph N12.9 kmh N 21.0 mph33.8 kmh 210.57 in7130.7 mb 0.00 in0.0 mm 0.00 in0.0 mm 1.51 in38.4 mm
01:15 PM 79.0°F26.1°C 59.3°F15.2°C 51% 7.0 mph N11.3 kmh N 21.0 mph33.8 kmh 210.57 in7130.7 mb 0.00 in0.0 mm 0.00 in0.0 mm 1.51 in38.4 mm
01:20 PM 78.0°F25.6°C 57.8°F14.3°C 50% 11.0 mph N17.7 kmh N 21.0 mph33.8 kmh 210.57 in7130.7 mb 0.00 in0.0 mm 0.00 in0.0 mm 1.51 in38.4 mm
01:25 PM 79.0°F26.1°C 59.3°F15.2°C 51% 7.0 mph NW11.3 kmh NW 21.0 mph33.8 kmh 210.57 in7130.7 mb 0.00 in0.0 mm 0.00 in0.0 mm 1.51 in38.4 mm
01:30 PM 78.0°F25.6°C 57.8°F14.3°C 50% 11.0 mph NW17.7 kmh NW 21.0 mph33.8 kmh 210.57 in7130.7 mb 0.00 in0.0 mm 0.00 in0.0 mm 1.51 in38.4 mm
01:35 PM 79.0°F26.1°C 58.7°F14.8°C 50% 9.0 mph NW14.5 kmh NW 21.0 mph33.8 kmh 210.56 in7130.4 mb 0.00 in0.0 mm 0.00 in0.0 mm 1.51 in38.4 mm
01:40 PM 79.0°F26.1°C 58.7°F14.8°C 50% 7.0 mph N11.3 kmh N 21.0 mph33.8 kmh 210.56 in7130.4 mb 0.00 in0.0 mm 0.00 in0.0 mm 1.51 in38.4 mm
01:45 PM -- -- - - N N -- -- 0.00 in0.0 mm 0.00 in0.0 mm 1.51 in38.4 mm
01:50 PM 79.0°F26.1°C 58.7°F14.8°C 50% 5.0 mph NW8.0 kmh NW 21.0 mph33.8 kmh 210.56 in7130.4 mb 0.00 in0.0 mm 0.00 in0.0 mm 1.51 in38.4 mm
01:55 PM 79.0°F26.1°C 58.7°F14.8°C 50% 11.0 mph NNE17.7 kmh NNE 21.0 mph33.8 kmh 210.56 in7130.4 mb 0.00 in0.0 mm 0.00 in0.0 mm 1.51 in38.4 mm
02:00 PM -- -- - - N N -- -- 0.00 in0.0 mm 0.00 in0.0 mm 1.51 in38.4 mm
02:05 PM 79.0°F26.1°C 58.1°F14.5°C 49% 9.0 mph NNW14.5 kmh NNW 22.0 mph35.4 kmh 210.56 in7130.4 mb 0.00 in0.0 mm 0.00 in0.0 mm 1.51 in38.4 mm
02:10 PM 80.0°F26.7°C 59.1°F15.1°C 49% 6.0 mph N9.7 kmh N 22.0 mph35.4 kmh 210.56 in7130.4 mb 0.00 in0.0 mm 0.00 in0.0 mm 1.51 in38.4 mm
02:15 PM 80.0°F26.7°C 59.6°F15.3°C 50% 8.0 mph N12.9 kmh N 22.0 mph35.4 kmh 210.56 in7130.4 mb 0.00 in0.0 mm 0.00 in0.0 mm 1.51 in38.4 mm
02:20 PM 80.0°F26.7°C 59.1°F15.1°C 49% 7.0 mph N11.3 kmh N 22.0 mph35.4 kmh 210.56 in7130.4 mb 0.00 in0.0 mm 0.00 in0.0 mm 1.51 in38.4 mm
02:25 PM 80.0°F26.7°C 59.1°F15.1°C 49% 11.0 mph NE17.7 kmh NE 22.0 mph35.4 kmh 210.56 in7130.4 mb 0.00 in0.0 mm 0.00 in0.0 mm 1.51 in38.4 mm
02:30 PM 80.0°F26.7°C 59.1°F15.1°C 49% 6.0 mph N9.7 kmh N 22.0 mph35.4 kmh 210.56 in7130.4 mb 0.00 in0.0 mm 0.00 in0.0 mm 1.51 in38.4 mm
02:35 PM 81.0°F27.2°C 60.5°F15.8°C 50% 11.0 mph NNE17.7 kmh NNE 22.0 mph35.4 kmh 210.55 in7130.0 mb 0.00 in0.0 mm 0.00 in0.0 mm 1.51 in38.4 mm
02:40 PM 80.0°F26.7°C 59.1°F15.1°C 49% 8.0 mph NW12.9 kmh NW 22.0 mph35.4 kmh 210.55 in7130.0 mb 0.00 in0.0 mm 0.00 in0.0 mm 1.51 in38.4 mm
02:45 PM 80.0°F26.7°C 59.1°F15.1°C 49% 6.0 mph N9.7 kmh N 22.0 mph35.4 kmh 210.56 in7130.4 mb 0.00 in0.0 mm 0.00 in0.0 mm 1.51 in38.4 mm
02:50 PM 80.0°F26.7°C 59.1°F15.1°C 49% 13.0 mph NE20.9 kmh NE 22.0 mph35.4 kmh 210.56 in7130.4 mb 0.00 in0.0 mm 0.00 in0.0 mm 1.51 in38.4 mm
02:55 PM 79.0°F26.1°C 58.1°F14.5°C 49% 15.0 mph N24.1 kmh N 22.0 mph35.4 kmh 210.56 in7130.4 mb 0.00 in0.0 mm 0.00 in0.0 mm 1.51 in38.4 mm
03:00 PM 80.0°F26.7°C 59.1°F15.1°C 49% 6.0 mph N9.7 kmh N 22.0 mph35.4 kmh 210.56 in7130.4 mb 0.00 in0.0 mm 0.00 in0.0 mm 1.51 in38.4 mm
03:05 PM 81.0°F27.2°C 60.0°F15.6°C 49% 14.0 mph NNW22.5 kmh NNW 22.0 mph35.4 kmh 210.55 in7130.0 mb 0.00 in0.0 mm 0.00 in0.0 mm 1.51 in38.4 mm
03:10 PM 81.0°F27.2°C 60.0°F15.6°C 49% 6.0 mph NNW9.7 kmh NNW 22.0 mph35.4 kmh 210.55 in7130.0 mb 0.00 in0.0 mm 0.00 in0.0 mm 1.51 in38.4 mm
03:15 PM 81.0°F27.2°C 60.0°F15.6°C 49% 9.0 mph NNW14.5 kmh NNW 22.0 mph35.4 kmh 210.55 in7130.0 mb 0.00 in0.0 mm 0.00 in0.0 mm 1.51 in38.4 mm
03:20 PM 81.0°F27.2°C 60.0°F15.6°C 49% 8.0 mph NE12.9 kmh NE 22.0 mph35.4 kmh 210.55 in7130.0 mb 0.00 in0.0 mm 0.00 in0.0 mm 1.51 in38.4 mm
03:25 PM 81.0°F27.2°C 60.0°F15.6°C 49% 11.0 mph NNW17.7 kmh NNW 22.0 mph35.4 kmh 210.55 in7130.0 mb 0.00 in0.0 mm 0.00 in0.0 mm 1.51 in38.4 mm
03:30 PM 81.0°F27.2°C 60.0°F15.6°C 49% 7.0 mph N11.3 kmh N 22.0 mph35.4 kmh 210.55 in7130.0 mb 0.00 in0.0 mm 0.00 in0.0 mm 1.51 in38.4 mm
03:35 PM 81.0°F27.2°C 59.4°F15.2°C 48% 7.0 mph NW11.3 kmh NW 22.0 mph35.4 kmh 210.55 in7130.0 mb 0.00 in0.0 mm 0.00 in0.0 mm 1.51 in38.4 mm
03:40 PM 80.0°F26.7°C 58.5°F14.7°C 48% 11.0 mph WNW17.7 kmh WNW 22.0 mph35.4 kmh 210.55 in7130.0 mb 0.00 in0.0 mm 0.00 in0.0 mm 1.51 in38.4 mm
03:45 PM 80.0°F26.7°C 59.1°F15.1°C 49% 9.0 mph N14.5 kmh N 22.0 mph35.4 kmh 210.56 in7130.4 mb 0.00 in0.0 mm 0.00 in0.0 mm 1.51 in38.4 mm
03:50 PM 81.0°F27.2°C 59.4°F15.2°C 48% 13.0 mph N20.9 kmh N 22.0 mph35.4 kmh 210.56 in7130.4 mb 0.00 in0.0 mm 0.00 in0.0 mm 1.51 in38.4 mm
03:55 PM 81.0°F27.2°C 59.4°F15.2°C 48% 9.0 mph N14.5 kmh N 22.0 mph35.4 kmh 210.56 in7130.4 mb 0.00 in0.0 mm 0.00 in0.0 mm 1.51 in38.4 mm
04:00 PM 81.0°F27.2°C 59.4°F15.2°C 48% 4.0 mph NW6.4 kmh NW 22.0 mph35.4 kmh 210.56 in7130.4 mb 0.00 in0.0 mm 0.00 in0.0 mm 1.51 in38.4 mm
04:05 PM 80.0°F26.7°C 58.5°F14.7°C 48% 10.0 mph NNW16.1 kmh NNW 22.0 mph35.4 kmh 210.57 in7130.7 mb 0.00 in0.0 mm 0.00 in0.0 mm 1.51 in38.4 mm
04:10 PM 80.0°F26.7°C 58.5°F14.7°C 48% 15.0 mph NW24.1 kmh NW 22.0 mph35.4 kmh 210.57 in7130.7 mb 0.00 in0.0 mm 0.00 in0.0 mm 1.51 in38.4 mm
04:15 PM 81.0°F27.2°C 59.4°F15.2°C 48% 6.0 mph N9.7 kmh N 22.0 mph35.4 kmh 210.56 in7130.4 mb 0.00 in0.0 mm 0.00 in0.0 mm 1.51 in38.4 mm
04:20 PM 80.0°F26.7°C 58.5°F14.7°C 48% 9.0 mph NNE14.5 kmh NNE 22.0 mph35.4 kmh 210.56 in7130.4 mb 0.00 in0.0 mm 0.00 in0.0 mm 1.51 in38.4 mm
04:25 PM 80.0°F26.7°C 58.5°F14.7°C 48% 10.0 mph NNE16.1 kmh NNE 22.0 mph35.4 kmh 210.57 in7130.7 mb 0.00 in0.0 mm 0.00 in0.0 mm 1.51 in38.4 mm
04:30 PM 80.0°F26.7°C 58.5°F14.7°C 48% 6.0 mph NE9.7 kmh NE 22.0 mph35.4 kmh 210.57 in7130.7 mb 0.00 in0.0 mm 0.00 in0.0 mm 1.51 in38.4 mm
04:35 PM 80.0°F26.7°C 58.5°F14.7°C 48% 9.0 mph N14.5 kmh N 22.0 mph35.4 kmh 210.56 in7130.4 mb 0.00 in0.0 mm 0.00 in0.0 mm 1.51 in38.4 mm
04:40 PM 80.0°F26.7°C 58.5°F14.7°C 48% 7.0 mph N11.3 kmh N 22.0 mph35.4 kmh 210.56 in7130.4 mb 0.00 in0.0 mm 0.00 in0.0 mm 1.51 in38.4 mm
04:45 PM 80.0°F26.7°C 58.5°F14.7°C 48% 10.0 mph N16.1 kmh N 22.0 mph35.4 kmh 210.56 in7130.4 mb 0.00 in0.0 mm 0.00 in0.0 mm 1.51 in38.4 mm
04:50 PM 81.0°F27.2°C 59.4°F15.2°C 48% 7.0 mph N11.3 kmh N 22.0 mph35.4 kmh 210.56 in7130.4 mb 0.00 in0.0 mm 0.00 in0.0 mm 1.51 in38.4 mm
04:55 PM 81.0°F27.2°C 59.4°F15.2°C 48% 10.0 mph NE16.1 kmh NE 22.0 mph35.4 kmh 210.55 in7130.0 mb 0.00 in0.0 mm 0.00 in0.0 mm 1.51 in38.4 mm
05:00 PM 80.0°F26.7°C 58.5°F14.7°C 48% 6.0 mph NNE9.7 kmh NNE 22.0 mph35.4 kmh 210.55 in7130.0 mb 0.00 in0.0 mm 0.00 in0.0 mm 1.51 in38.4 mm
05:05 PM 80.0°F26.7°C 58.5°F14.7°C 48% 21.0 mph NNW33.8 kmh NNW 25.0 mph40.2 kmh 210.56 in7130.4 mb 0.00 in0.0 mm 0.00 in0.0 mm 1.51 in38.4 mm
05:10 PM 80.0°F26.7°C 58.5°F14.7°C 48% 4.0 mph N6.4 kmh N 25.0 mph40.2 kmh 210.56 in7130.4 mb 0.00 in0.0 mm 0.00 in0.0 mm 1.51 in38.4 mm
05:15 PM -- -- - - N N -- -- 0.00 in0.0 mm 0.00 in0.0 mm 1.51 in38.4 mm
05:20 PM 80.0°F26.7°C 58.5°F14.7°C 48% 10.0 mph NNW16.1 kmh NNW 25.0 mph40.2 kmh 210.55 in7130.0 mb 0.00 in0.0 mm 0.00 in0.0 mm 1.51 in38.4 mm
05:25 PM 80.0°F26.7°C 58.5°F14.7°C 48% 7.0 mph NNE11.3 kmh NNE 25.0 mph40.2 kmh 210.56 in7130.4 mb 0.00 in0.0 mm 0.00 in0.0 mm 1.51 in38.4 mm
05:30 PM 80.0°F26.7°C 58.5°F14.7°C 48% 9.0 mph NW14.5 kmh NW 25.0 mph40.2 kmh 210.56 in7130.4 mb 0.00 in0.0 mm 0.00 in0.0 mm 1.51 in38.4 mm
05:35 PM -- -- - - N N -- -- 0.00 in0.0 mm 0.00 in0.0 mm 1.51 in38.4 mm
05:40 PM 80.0°F26.7°C 58.5°F14.7°C 48% 2.0 mph NE3.2 kmh NE 25.0 mph40.2 kmh 210.56 in7130.4 mb 0.00 in0.0 mm 0.00 in0.0 mm 1.51 in38.4 mm
05:45 PM 80.0°F26.7°C 58.5°F14.7°C 48% 6.0 mph N9.7 kmh N 25.0 mph40.2 kmh 210.56 in7130.4 mb 0.00 in0.0 mm 0.00 in0.0 mm 1.51 in38.4 mm
05:50 PM 79.0°F26.1°C 57.6°F14.2°C 48% 12.0 mph N19.3 kmh N 25.0 mph40.2 kmh 210.56 in7130.4 mb 0.00 in0.0 mm 0.00 in0.0 mm 1.51 in38.4 mm
05:55 PM 80.0°F26.7°C 58.5°F14.7°C 48% 7.0 mph N11.3 kmh N 25.0 mph40.2 kmh 210.56 in7130.4 mb 0.00 in0.0 mm 0.00 in0.0 mm 1.51 in38.4 mm
06:00 PM 80.0°F26.7°C 58.5°F14.7°C 48% 6.0 mph NNE9.7 kmh NNE 25.0 mph40.2 kmh 210.55 in7130.0 mb 0.00 in0.0 mm 0.00 in0.0 mm 1.51 in38.4 mm
06:05 PM 80.0°F26.7°C 58.5°F14.7°C 48% 10.0 mph NNW16.1 kmh NNW 25.0 mph40.2 kmh 210.55 in7130.0 mb 0.00 in0.0 mm 0.00 in0.0 mm 1.51 in38.4 mm
06:10 PM 80.0°F26.7°C 58.5°F14.7°C 48% 5.0 mph ENE8.0 kmh ENE 25.0 mph40.2 kmh 210.55 in7130.0 mb 0.00 in0.0 mm 0.00 in0.0 mm 1.51 in38.4 mm
06:15 PM -- -- - - N N -- -- 0.00 in0.0 mm 0.00 in0.0 mm 1.51 in38.4 mm
06:20 PM 79.0°F26.1°C 57.6°F14.2°C 48% 10.0 mph N16.1 kmh N 25.0 mph40.2 kmh 210.56 in7130.4 mb 0.00 in0.0 mm 0.00 in0.0 mm 1.51 in38.4 mm
06:25 PM 79.0°F26.1°C 57.6°F14.2°C 48% 7.0 mph N11.3 kmh N 25.0 mph40.2 kmh 210.55 in7130.0 mb 0.00 in0.0 mm 0.00 in0.0 mm 1.51 in38.4 mm
06:30 PM 79.0°F26.1°C 57.6°F14.2°C 48% 7.0 mph N11.3 kmh N 25.0 mph40.2 kmh 210.55 in7130.0 mb 0.00 in0.0 mm 0.00 in0.0 mm 1.51 in38.4 mm
06:35 PM 79.0°F26.1°C 57.6°F14.2°C 48% 12.0 mph N19.3 kmh N 25.0 mph40.2 kmh 210.56 in7130.4 mb 0.00 in0.0 mm 0.00 in0.0 mm 1.51 in38.4 mm
06:40 PM 79.0°F26.1°C 57.6°F14.2°C 48% 9.0 mph NW14.5 kmh NW 25.0 mph40.2 kmh 210.56 in7130.4 mb 0.00 in0.0 mm 0.00 in0.0 mm 1.51 in38.4 mm
06:45 PM 79.0°F26.1°C 57.6°F14.2°C 48% 3.0 mph NW4.8 kmh NW 25.0 mph40.2 kmh 210.56 in7130.4 mb 0.00 in0.0 mm 0.00 in0.0 mm 1.51 in38.4 mm
06:50 PM 79.0°F26.1°C 57.6°F14.2°C 48% 4.0 mph N6.4 kmh N 25.0 mph40.2 kmh 210.56 in7130.4 mb 0.00 in0.0 mm 0.00 in0.0 mm 1.51 in38.4 mm
06:55 PM -- -- - - N N -- -- 0.00 in0.0 mm 0.00 in0.0 mm 1.51 in38.4 mm
07:00 PM -- -- - - N N -- -- 0.00 in0.0 mm 0.00 in0.0 mm 1.51 in38.4 mm
07:05 PM 79.0°F26.1°C 57.6°F14.2°C 48% 13.0 mph NE20.9 kmh NE 25.0 mph40.2 kmh 210.55 in7130.0 mb 0.00 in0.0 mm 0.00 in0.0 mm 1.51 in38.4 mm
07:10 PM 78.0°F25.6°C 56.7°F13.7°C 48% 12.0 mph NNW19.3 kmh NNW 25.0 mph40.2 kmh 210.57 in7130.7 mb 0.00 in0.0 mm 0.00 in0.0 mm 1.51 in38.4 mm
07:15 PM -- -- - - N N -- -- 0.00 in0.0 mm 0.00 in0.0 mm 1.51 in38.4 mm
07:20 PM 78.0°F25.6°C 56.7°F13.7°C 48% 7.0 mph NW11.3 kmh NW 25.0 mph40.2 kmh 210.57 in7130.7 mb 0.00 in0.0 mm 0.00 in0.0 mm 1.51 in38.4 mm
07:25 PM 78.0°F25.6°C 56.7°F13.7°C 48% 14.0 mph NNW22.5 kmh NNW 25.0 mph40.2 kmh 210.56 in7130.4 mb 0.00 in0.0 mm 0.00 in0.0 mm 1.51 in38.4 mm
07:30 PM 77.0°F25.0°C 55.7°F13.2°C 48% 19.0 mph NNW30.6 kmh NNW 25.0 mph40.2 kmh 210.56 in7130.4 mb 0.00 in0.0 mm 0.00 in0.0 mm 1.51 in38.4 mm
07:35 PM -- -- - - N N -- -- 0.00 in0.0 mm 0.00 in0.0 mm 1.51 in38.4 mm
07:45 PM -- -- - - N N -- -- 0.00 in0.0 mm 0.00 in0.0 mm 1.51 in38.4 mm
07:50 PM -- -- - - N N -- -- 0.00 in0.0 mm 0.00 in0.0 mm 1.51 in38.4 mm
07:55 PM -- -- - - N N -- -- 0.00 in0.0 mm 0.00 in0.0 mm 1.51 in38.4 mm
08:00 PM -- -- - - N N -- -- 0.00 in0.0 mm 0.00 in0.0 mm 1.51 in38.4 mm
08:05 PM -- -- - - N N -- -- 0.00 in0.0 mm 0.00 in0.0 mm 1.51 in38.4 mm
08:10 PM 75.0°F23.9°C 53.3°F11.8°C 47% 7.0 mph NNW11.3 kmh NNW 25.0 mph40.2 kmh 210.58 in7131.1 mb 0.00 in0.0 mm 0.00 in0.0 mm 1.51 in38.4 mm
08:15 PM -- -- - - N N -- -- 0.00 in0.0 mm 0.00 in0.0 mm 1.51 in38.4 mm
08:20 PM 75.0°F23.9°C 53.3°F11.8°C 47% 11.0 mph N17.7 kmh N 25.0 mph40.2 kmh 210.58 in7131.1 mb 0.00 in0.0 mm 0.00 in0.0 mm 1.51 in38.4 mm
08:25 PM -- -- - - N N -- -- 0.00 in0.0 mm 0.00 in0.0 mm 1.51 in38.4 mm
08:30 PM 74.0°F23.3°C 52.4°F11.3°C 47% 4.0 mph N6.4 kmh N 25.0 mph40.2 kmh 210.58 in7131.1 mb 0.00 in0.0 mm 0.00 in0.0 mm 1.51 in38.4 mm
08:35 PM 74.0°F23.3°C 52.4°F11.3°C 47% 9.0 mph N14.5 kmh N 25.0 mph40.2 kmh 210.58 in7131.1 mb 0.00 in0.0 mm 0.00 in0.0 mm 1.51 in38.4 mm
08:40 PM -- -- - - N N -- -- 0.00 in0.0 mm 0.00 in0.0 mm 1.51 in38.4 mm
08:45 PM -- -- - - N N -- -- 0.00 in0.0 mm 0.00 in0.0 mm 1.51 in38.4 mm
08:50 PM -- -- - - N N -- -- 0.00 in0.0 mm 0.00 in0.0 mm 1.51 in38.4 mm
08:55 PM -- -- - - N N -- -- 0.00 in0.0 mm 0.00 in0.0 mm 1.51 in38.4 mm
09:00 PM 73.0°F22.8°C 50.9°F10.5°C 46% 10.0 mph NE16.1 kmh NE 25.0 mph40.2 kmh 210.59 in7131.4 mb 0.00 in0.0 mm 0.00 in0.0 mm 1.51 in38.4 mm
09:05 PM -- -- - - N N -- -- 0.00 in0.0 mm 0.00 in0.0 mm 1.51 in38.4 mm
09:10 PM -- -- - - N N -- -- 0.00 in0.0 mm 0.00 in0.0 mm 1.51 in38.4 mm
09:15 PM -- -- - - N N -- -- 0.00 in0.0 mm 0.00 in0.0 mm 1.51 in38.4 mm
09:20 PM -- -- - - N N -- -- 0.00 in0.0 mm 0.00 in0.0 mm 1.51 in38.4 mm
09:25 PM -- -- - - N N -- -- 0.00 in0.0 mm 0.00 in0.0 mm 1.51 in38.4 mm
09:30 PM -- -- - - N N -- -- 0.00 in0.0 mm 0.00 in0.0 mm 1.51 in38.4 mm
09:35 PM -- -- - - N N -- -- 0.00 in0.0 mm 0.00 in0.0 mm 1.51 in38.4 mm
09:40 PM -- -- - - N N -- -- 0.00 in0.0 mm 0.00 in0.0 mm 1.51 in38.4 mm
09:45 PM -- -- - - N N -- -- 0.00 in0.0 mm 0.00 in0.0 mm 1.51 in38.4 mm
09:50 PM -- -- - - N N -- -- 0.00 in0.0 mm 0.00 in0.0 mm 1.51 in38.4 mm
09:55 PM -- -- - - N N -- -- 0.00 in0.0 mm 0.00 in0.0 mm 1.51 in38.4 mm
10:00 PM -- -- - - N N -- -- 0.00 in0.0 mm 0.00 in0.0 mm 1.51 in38.4 mm
10:05 PM -- -- - - N N -- -- 0.00 in0.0 mm 0.00 in0.0 mm 1.51 in38.4 mm
10:10 PM -- -- - - N N -- -- 0.00 in0.0 mm 0.00 in0.0 mm 1.51 in38.4 mm
10:15 PM -- -- - - N N -- -- 0.00 in0.0 mm 0.00 in0.0 mm 1.51 in38.4 mm
10:20 PM -- -- - - N N -- -- 0.00 in0.0 mm 0.00 in0.0 mm 1.51 in38.4 mm
10:25 PM -- -- - - N N -- -- 0.00 in0.0 mm 0.00 in0.0 mm 1.51 in38.4 mm
10:30 PM -- -- - - N N -- -- 0.00 in0.0 mm 0.00 in0.0 mm 1.51 in38.4 mm
10:35 PM -- -- - - N N -- -- 0.00 in0.0 mm 0.00 in0.0 mm 1.51 in38.4 mm
10:40 PM -- -- - - N N -- -- 0.00 in0.0 mm 0.00 in0.0 mm 1.51 in38.4 mm
10:45 PM -- -- - - N N -- -- 0.00 in0.0 mm 0.00 in0.0 mm 1.51 in38.4 mm
10:50 PM -- -- - - N N -- -- 0.00 in0.0 mm 0.00 in0.0 mm 1.51 in38.4 mm
10:55 PM -- -- - - N N -- -- 0.00 in0.0 mm 0.00 in0.0 mm 1.51 in38.4 mm
11:00 PM -- -- - - N N -- -- 0.00 in0.0 mm 0.00 in0.0 mm 1.51 in38.4 mm
11:05 PM -- -- - - N N -- -- 0.00 in0.0 mm 0.00 in0.0 mm 1.51 in38.4 mm
11:10 PM -- -- - - N N -- -- 0.00 in0.0 mm 0.00 in0.0 mm 1.51 in38.4 mm
11:15 PM -- -- - - N N -- -- 0.00 in0.0 mm 0.00 in0.0 mm 1.51 in38.4 mm
11:20 PM -- -- - - N N -- -- 0.00 in0.0 mm 0.00 in0.0 mm 1.51 in38.4 mm
11:25 PM -- -- - - N N -- -- 0.00 in0.0 mm 0.00 in0.0 mm 1.51 in38.4 mm
11:30 PM -- -- - - N N -- -- 0.00 in0.0 mm 0.00 in0.0 mm 1.51 in38.4 mm
11:35 PM 68.0°F20.0°C 47.0°F8.3°C 47% 3.0 mph NNW4.8 kmh NNW 25.0 mph40.2 kmh 210.64 in7133.1 mb 0.00 in0.0 mm 0.00 in0.0 mm 1.51 in38.4 mm
11:40 PM -- -- - - N N -- -- 0.00 in0.0 mm 0.00 in0.0 mm 1.51 in38.4 mm
11:45 PM -- -- - - N N -- -- 0.00 in0.0 mm 0.00 in0.0 mm 1.51 in38.4 mm
11:50 PM -- -- - - N N -- -- 0.00 in0.0 mm 0.00 in0.0 mm 1.51 in38.4 mm
11:55 PM -- -- - - N N -- -- 0.00 in0.0 mm 0.00 in0.0 mm 1.51 in38.4 mm